sensor_id;sensor_type;location;lat;lon;timestamp;pressure;altitude;pressure_sealevel;temperature;humidity
5284;BME280;15377;48.540;9.268;2023-05-23T00:00:36;97275.31;;;14.32;100.00
5284;BME280;15377;48.540;9.268;2023-05-23T00:03:02;97277.06;;;14.41;100.00
5284;BME280;15377;48.540;9.268;2023-05-23T00:05:31;97262.97;;;14.39;100.00
5284;BME280;15377;48.540;9.268;2023-05-23T00:07:56;97266.53;;;14.45;100.00
5284;BME280;15377;48.540;9.268;2023-05-23T00:10:24;97272.06;;;14.45;100.00
5284;BME280;15377;48.540;9.268;2023-05-23T00:12:58;97276.09;;;14.44;100.00
5284;BME280;15377;48.540;9.268;2023-05-23T00:15:32;97271.03;;;14.48;100.00
5284;BME280;15377;48.540;9.268;2023-05-23T00:18:17;97251.16;;;14.44;100.00
5284;BME280;15377;48.540;9.268;2023-05-23T00:20:48;97291.25;;;14.76;100.00
5284;BME280;15377;48.540;9.268;2023-05-23T00:23:18;97290.50;;;14.91;100.00
5284;BME280;15377;48.540;9.268;2023-05-23T00:25:54;97294.78;;;15.03;100.00
5284;BME280;15377;48.540;9.268;2023-05-23T00:28:22;97297.53;;;14.98;100.00
5284;BME280;15377;48.540;9.268;2023-05-23T00:30:54;97294.78;;;15.03;100.00
5284;BME280;15377;48.540;9.268;2023-05-23T00:33:19;97288.72;;;15.05;100.00
5284;BME280;15377;48.540;9.268;2023-05-23T00:35:52;97271.34;;;15.04;100.00
5284;BME280;15377;48.540;9.268;2023-05-23T00:38:20;97272.63;;;15.14;100.00
5284;BME280;15377;48.540;9.268;2023-05-23T00:40:49;97276.13;;;15.20;100.00
5284;BME280;15377;48.540;9.268;2023-05-23T00:43:23;97290.25;;;15.28;100.00
5284;BME280;15377;48.540;9.268;2023-05-23T00:45:49;97282.19;;;15.24;100.00
5284;BME280;15377;48.540;9.268;2023-05-23T00:48:29;97284.97;;;15.35;100.00
5284;BME280;15377;48.540;9.268;2023-05-23T00:50:55;97290.50;;;15.46;100.00
5284;BME280;15377;48.540;9.268;2023-05-23T00:53:24;97282.16;;;15.41;100.00
5284;BME280;15377;48.540;9.268;2023-05-23T00:55:52;97280.66;;;15.45;100.00
5284;BME280;15377;48.540;9.268;2023-05-23T00:58:20;97290.50;;;15.52;100.00
5284;BME280;15377;48.540;9.268;2023-05-23T01:00:47;97275.09;;;15.45;100.00
5284;BME280;15377;48.540;9.268;2023-05-23T01:03:17;97278.91;;;15.42;100.00
5284;BME280;15377;48.540;9.268;2023-05-23T01:05:43;97292.47;;;15.57;100.00
5284;BME280;15377;48.540;9.268;2023-05-23T01:08:09;97295.25;;;15.62;100.00
5284;BME280;15377;48.540;9.268;2023-05-23T01:10:34;97289.19;;;15.64;100.00
5284;BME280;15377;48.540;9.268;2023-05-23T01:15:55;97284.44;;;15.59;100.00
5284;BME280;15377;48.540;9.268;2023-05-23T01:18:32;97299.03;;;15.70;100.00
5284;BME280;15377;48.540;9.268;2023-05-23T01:21:18;97281.63;;;15.70;100.00
5284;BME280;15377;48.540;9.268;2023-05-23T01:29:10;97292.44;;;15.73;100.00
5284;BME280;15377;48.540;9.268;2023-05-23T01:31:49;97290.94;;;15.72;100.00
5284;BME280;15377;48.540;9.268;2023-05-23T01:34:17;97296.97;;;15.76;100.00
5284;BME280;15377;48.540;9.268;2023-05-23T01:36:43;97262.97;;;15.59;100.00
5284;BME280;15377;48.540;9.268;2023-05-23T01:39:09;97286.66;;;15.71;100.00
5284;BME280;15377;48.540;9.268;2023-05-23T01:41:35;97290.19;;;15.77;100.00
5284;BME280;15377;48.540;9.268;2023-05-23T01:44:00;97284.13;;;15.73;100.00
5284;BME280;15377;48.540;9.268;2023-05-23T01:46:26;97294.19;;;15.87;100.00
5284;BME280;15377;48.540;9.268;2023-05-23T01:48:54;97294.44;;;15.89;100.00
5284;BME280;15377;48.540;9.268;2023-05-23T01:51:21;97293.38;;;15.92;100.00
5284;BME280;15377;48.540;9.268;2023-05-23T01:53:49;97285.34;;;15.83;100.00
5284;BME280;15377;48.540;9.268;2023-05-23T01:56:15;97289.09;;;15.91;100.00
5284;BME280;15377;48.540;9.268;2023-05-23T01:58:41;97262.44;;;15.77;100.00
5284;BME280;15377;48.540;9.268;2023-05-23T02:01:08;97288.38;;;15.80;100.00
5284;BME280;15377;48.540;9.268;2023-05-23T02:03:34;97300.00;;;15.84;100.00
5284;BME280;15377;48.540;9.268;2023-05-23T02:05:59;97286.41;;;15.75;100.00
5284;BME280;15377;48.540;9.268;2023-05-23T02:08:24;97297.19;;;15.89;100.00
5284;BME280;15377;48.540;9.268;2023-05-23T02:10:50;97296.97;;;15.87;100.00
5284;BME280;15377;48.540;9.268;2023-05-23T02:13:15;97287.13;;;15.86;100.00
5284;BME280;15377;48.540;9.268;2023-05-23T02:15:40;97297.41;;;15.97;100.00
5284;BME280;15377;48.540;9.268;2023-05-23T02:18:06;97297.72;;;15.93;100.00
5284;BME280;15377;48.540;9.268;2023-05-23T02:20:31;97309.25;;;16.03;100.00
5284;BME280;15377;48.540;9.268;2023-05-23T02:22:56;97294.63;;;15.97;100.00
5284;BME280;15377;48.540;9.268;2023-05-23T02:25:22;97291.34;;;15.98;100.00
5284;BME280;15377;48.540;9.268;2023-05-23T02:27:47;97304.44;;;16.09;100.00
5284;BME280;15377;48.540;9.268;2023-05-23T02:30:13;97296.63;;;16.07;100.00
5284;BME280;15377;48.540;9.268;2023-05-23T02:32:38;97290.84;;;16.05;100.00
5284;BME280;15377;48.540;9.268;2023-05-23T02:35:04;97300.41;;;16.10;100.00
5284;BME280;15377;48.540;9.268;2023-05-23T02:37:30;97301.44;;;16.07;100.00
5284;BME280;15377;48.540;9.268;2023-05-23T02:39:55;97307.22;;;16.09;100.00
5284;BME280;15377;48.540;9.268;2023-05-23T02:42:21;97309.53;;;16.05;100.00
5284;BME280;15377;48.540;9.268;2023-05-23T02:44:46;97312.03;;;16.03;100.00
5284;BME280;15377;48.540;9.268;2023-05-23T02:47:11;97311.78;;;16.01;100.00
5284;BME280;15377;48.540;9.268;2023-05-23T02:49:37;97295.44;;;15.92;100.00
5284;BME280;15377;48.540;9.268;2023-05-23T02:52:03;97311.28;;;16.02;100.00
5284;BME280;15377;48.540;9.268;2023-05-23T02:54:28;97304.25;;;16.01;100.00
5284;BME280;15377;48.540;9.268;2023-05-23T02:56:53;97301.72;;;15.98;100.00
5284;BME280;15377;48.540;9.268;2023-05-23T02:59:20;97295.19;;;15.90;100.00
5284;BME280;15377;48.540;9.268;2023-05-23T03:01:46;97295.94;;;15.85;100.00
5284;BME280;15377;48.540;9.268;2023-05-23T03:04:11;97290.19;;;15.66;100.00
5284;BME280;15377;48.540;9.268;2023-05-23T03:06:38;97292.22;;;15.60;100.00
5284;BME280;15377;48.540;9.268;2023-05-23T03:09:04;97296.25;;;15.59;100.00
5284;BME280;15377;48.540;9.268;2023-05-23T03:11:29;97300.56;;;15.55;100.00
5284;BME280;15377;48.540;9.268;2023-05-23T03:13:55;97294.25;;;15.49;100.00
5284;BME280;15377;48.540;9.268;2023-05-23T03:16:21;97304.34;;;15.57;100.00
5284;BME280;15377;48.540;9.268;2023-05-23T03:18:47;97299.81;;;15.54;100.00
5284;BME280;15377;48.540;9.268;2023-05-23T03:21:13;97306.59;;;15.64;100.00
5284;BME280;15377;48.540;9.268;2023-05-23T03:23:38;97310.66;;;15.63;100.00
5284;BME280;15377;48.540;9.268;2023-05-23T03:26:04;97309.38;;;15.64;100.00
5284;BME280;15377;48.540;9.268;2023-05-23T03:28:30;97309.38;;;15.64;100.00
5284;BME280;15377;48.540;9.268;2023-05-23T03:30:57;97312.38;;;15.72;100.00
5284;BME280;15377;48.540;9.268;2023-05-23T03:33:22;97300.28;;;15.69;100.00
5284;BME280;15377;48.540;9.268;2023-05-23T03:35:47;97312.38;;;15.77;100.00
5284;BME280;15377;48.540;9.268;2023-05-23T03:38:13;97312.38;;;15.72;100.00
5284;BME280;15377;48.540;9.268;2023-05-23T03:40:39;97303.81;;;15.64;100.00
5284;BME280;15377;48.540;9.268;2023-05-23T03:43:05;97324.22;;;15.78;100.00
5284;BME280;15377;48.540;9.268;2023-05-23T03:45:31;97323.47;;;15.77;100.00
5284;BME280;15377;48.540;9.268;2023-05-23T03:47:57;97302.81;;;15.67;100.00
5284;BME280;15377;48.540;9.268;2023-05-23T03:50:23;97313.88;;;15.73;100.00
5284;BME280;15377;48.540;9.268;2023-05-23T03:52:48;97327.75;;;15.78;100.00
5284;BME280;15377;48.540;9.268;2023-05-23T03:55:14;97333.03;;;15.87;100.00
5284;BME280;15377;48.540;9.268;2023-05-23T03:57:39;97323.97;;;15.81;100.00
5284;BME280;15377;48.540;9.268;2023-05-23T04:00:05;97328.00;;;15.80;100.00
5284;BME280;15377;48.540;9.268;2023-05-23T04:02:31;97335.56;;;15.85;100.00
5284;BME280;15377;48.540;9.268;2023-05-23T04:04:57;97331.53;;;15.86;100.00
5284;BME280;15377;48.540;9.268;2023-05-23T04:07:22;97310.38;;;15.72;100.00
5284;BME280;15377;48.540;9.268;2023-05-23T04:09:50;97323.69;;;15.90;100.00
5284;BME280;15377;48.540;9.268;2023-05-23T04:12:19;97325.97;;;15.86;100.00
5284;BME280;15377;48.540;9.268;2023-05-23T04:14:46;97321.94;;;15.87;100.00
5284;BME280;15377;48.540;9.268;2023-05-23T04:17:12;97326.22;;;15.88;100.00
5284;BME280;15377;48.540;9.268;2023-05-23T04:19:38;97328.22;;;15.93;100.00
5284;BME280;15377;48.540;9.268;2023-05-23T04:22:04;97321.41;;;15.94;100.00
5284;BME280;15377;48.540;9.268;2023-05-23T04:24:29;97314.63;;;15.90;100.00
5284;BME280;15377;48.540;9.268;2023-05-23T04:26:55;97311.06;;;15.95;100.00
5284;BME280;15377;48.540;9.268;2023-05-23T04:29:20;97321.59;;;16.07;100.00
5284;BME280;15377;48.540;9.268;2023-05-23T04:31:46;97318.31;;;16.09;100.00
5284;BME280;15377;48.540;9.268;2023-05-23T04:34:11;97319.84;;;16.04;100.00
5284;BME280;15377;48.540;9.268;2023-05-23T04:36:36;97330.19;;;16.09;100.00
5284;BME280;15377;48.540;9.268;2023-05-23T04:39:04;97330.94;;;16.10;100.00
5284;BME280;15377;48.540;9.268;2023-05-23T04:41:29;97330.47;;;16.06;100.00
5284;BME280;15377;48.540;9.268;2023-05-23T04:43:55;97338.00;;;16.11;100.00
5284;BME280;15377;48.540;9.268;2023-05-23T04:46:22;97340.50;;;16.14;100.00
5284;BME280;15377;48.540;9.268;2023-05-23T04:48:53;97335.72;;;16.15;100.00
5284;BME280;15377;48.540;9.268;2023-05-23T04:51:28;97327.91;;;16.13;100.00
5284;BME280;15377;48.540;9.268;2023-05-23T04:54:01;97343.00;;;16.23;100.00
5284;BME280;15377;48.540;9.268;2023-05-23T04:56:29;97336.97;;;16.19;100.00
5284;BME280;15377;48.540;9.268;2023-05-23T04:58:55;97310.78;;;16.09;100.00
5284;BME280;15377;48.540;9.268;2023-05-23T05:01:20;97353.56;;;16.30;100.00
5284;BME280;15377;48.540;9.268;2023-05-23T05:03:48;97340.47;;;16.31;100.00
5284;BME280;15377;48.540;9.268;2023-05-23T05:06:14;97343.47;;;16.33;100.00
5284;BME280;15377;48.540;9.268;2023-05-23T05:08:51;97332.88;;;16.31;100.00
5284;BME280;15377;48.540;9.268;2023-05-23T05:11:17;97338.69;;;16.33;100.00
5284;BME280;15377;48.540;9.268;2023-05-23T05:13:49;97353.31;;;16.34;100.00
5284;BME280;15377;48.540;9.268;2023-05-23T05:16:14;97359.63;;;16.40;100.00
5284;BME280;15377;48.540;9.268;2023-05-23T05:18:45;97350.78;;;16.36;100.00
5284;BME280;15377;48.540;9.268;2023-05-23T05:21:19;97363.66;;;16.44;100.00
5284;BME280;15377;48.540;9.268;2023-05-23T05:23:44;97357.63;;;16.40;100.00
5284;BME280;15377;48.540;9.268;2023-05-23T05:26:10;97359.88;;;16.42;100.00
5284;BME280;15377;48.540;9.268;2023-05-23T05:28:35;97364.69;;;16.41;100.00
5284;BME280;15377;48.540;9.268;2023-05-23T05:31:03;97361.66;;;16.39;100.00
5284;BME280;15377;48.540;9.268;2023-05-23T05:33:32;97364.97;;;16.38;100.00
5284;BME280;15377;48.540;9.268;2023-05-23T05:36:04;97361.66;;;16.39;100.00
5284;BME280;15377;48.540;9.268;2023-05-23T05:38:36;97362.16;;;16.43;100.00
5284;BME280;15377;48.540;9.268;2023-05-23T05:41:04;97371.47;;;16.51;100.00
5284;BME280;15377;48.540;9.268;2023-05-23T05:43:30;97370.69;;;16.56;100.00
5284;BME280;15377;48.540;9.268;2023-05-23T05:45:58;97339.69;;;16.41;100.00
5284;BME280;15377;48.540;9.268;2023-05-23T05:48:32;97369.59;;;16.70;100.00
5284;BME280;15377;48.540;9.268;2023-05-23T05:50:58;97379.69;;;16.73;100.00
5284;BME280;15377;48.540;9.268;2023-05-23T05:53:25;97374.59;;;16.77;100.00
5284;BME280;15377;48.540;9.268;2023-05-23T05:55:50;97377.16;;;16.75;100.00
5284;BME280;15377;48.540;9.268;2023-05-23T05:58:16;97378.94;;;16.73;100.00
5284;BME280;15377;48.540;9.268;2023-05-23T06:00:41;97373.63;;;16.69;100.00
5284;BME280;15377;48.540;9.268;2023-05-23T06:03:07;97374.59;;;16.77;100.00
5284;BME280;15377;48.540;9.268;2023-05-23T06:05:33;97380.91;;;16.83;100.00
5284;BME280;15377;48.540;9.268;2023-05-23T06:07:58;97387.72;;;16.82;100.00
5284;BME280;15377;48.540;9.268;2023-05-23T06:10:24;97387.19;;;16.89;100.00
5284;BME280;15377;48.540;9.268;2023-05-23T06:12:49;97383.56;;;17.05;100.00
5284;BME280;15377;48.540;9.268;2023-05-23T06:15:15;97377.91;;;17.16;100.00
5284;BME280;15377;48.540;9.268;2023-05-23T06:17:41;97385.22;;;17.19;100.00
5284;BME280;15377;48.540;9.268;2023-05-23T06:20:06;97391.97;;;17.29;100.00
5284;BME280;15377;48.540;9.268;2023-05-23T06:22:32;97387.63;;;17.39;100.00
5284;BME280;15377;48.540;9.268;2023-05-23T06:24:58;97385.91;;;17.36;100.00
5284;BME280;15377;48.540;9.268;2023-05-23T06:27:23;97398.00;;;17.33;100.00
5284;BME280;15377;48.540;9.268;2023-05-23T06:29:48;97397.19;;;17.44;100.00
5284;BME280;15377;48.540;9.268;2023-05-23T06:32:14;97384.75;;;17.50;100.00
5284;BME280;15377;48.540;9.268;2023-05-23T06:34:40;97401.44;;;17.50;100.00
5284;BME280;15377;48.540;9.268;2023-05-23T06:37:05;97399.94;;;17.49;100.00
5284;BME280;15377;48.540;9.268;2023-05-23T06:39:36;97399.38;;;17.56;100.00
5284;BME280;15377;48.540;9.268;2023-05-23T06:42:05;97405.88;;;17.64;100.00
5284;BME280;15377;48.540;9.268;2023-05-23T06:44:30;97413.44;;;17.69;100.00
5284;BME280;15377;48.540;9.268;2023-05-23T06:46:56;97406.16;;;17.66;100.00
5284;BME280;15377;48.540;9.268;2023-05-23T06:49:23;97402.66;;;17.60;100.00
5284;BME280;15377;48.540;9.268;2023-05-23T06:51:49;97414.97;;;17.70;100.00
5284;BME280;15377;48.540;9.268;2023-05-23T06:54:14;97414.06;;;17.86;100.00
5284;BME280;15377;48.540;9.268;2023-05-23T06:56:39;97414.00;;;17.92;100.00
5284;BME280;15377;48.540;9.268;2023-05-23T06:59:05;97412.78;;;18.11;100.00
5284;BME280;15377;48.540;9.268;2023-05-23T07:01:30;97438.22;;;18.26;100.00
5284;BME280;15377;48.540;9.268;2023-05-23T07:03:56;97434.44;;;18.53;100.00
5284;BME280;15377;48.540;9.268;2023-05-23T07:06:21;97435.22;;;18.72;100.00
5284;BME280;15377;48.540;9.268;2023-05-23T07:08:47;97438.47;;;18.52;100.00
5284;BME280;15377;48.540;9.268;2023-05-23T07:11:12;97446.97;;;18.41;100.00
5284;BME280;15377;48.540;9.268;2023-05-23T07:13:37;97446.44;;;18.13;100.00
5284;BME280;15377;48.540;9.268;2023-05-23T07:16:03;97448.75;;;17.85;100.00
5284;BME280;15377;48.540;9.268;2023-05-23T07:18:28;97444.78;;;17.75;100.00
5284;BME280;15377;48.540;9.268;2023-05-23T07:20:54;97445.25;;;17.79;100.00
5284;BME280;15377;48.540;9.268;2023-05-23T07:23:19;97445.56;;;17.70;100.00
5284;BME280;15377;48.540;9.268;2023-05-23T07:25:44;97451.84;;;17.76;100.00
5284;BME280;15377;48.540;9.268;2023-05-23T07:28:11;97461.22;;;17.79;100.00
5284;BME280;15377;48.540;9.268;2023-05-23T07:30:36;97453.94;;;17.70;100.00
5284;BME280;15377;48.540;9.268;2023-05-23T07:33:02;97451.22;;;17.59;100.00
5284;BME280;15377;48.540;9.268;2023-05-23T07:35:27;97455.03;;;17.56;100.00
5284;BME280;15377;48.540;9.268;2023-05-23T07:37:53;97459.31;;;17.63;100.00
5284;BME280;15377;48.540;9.268;2023-05-23T07:40:22;97456.94;;;17.72;100.00
5284;BME280;15377;48.540;9.268;2023-05-23T07:42:48;97452.97;;;17.62;100.00
5284;BME280;15377;48.540;9.268;2023-05-23T07:45:13;97462.28;;;17.70;100.00
5284;BME280;15377;48.540;9.268;2023-05-23T07:47:39;97461.94;;;17.79;100.00
5284;BME280;15377;48.540;9.268;2023-05-23T07:50:06;97464.50;;;17.77;100.00
5284;BME280;15377;48.540;9.268;2023-05-23T07:52:31;97456.38;;;17.79;100.00
5284;BME280;15377;48.540;9.268;2023-05-23T07:54:57;97449.88;;;17.71;100.00
5284;BME280;15377;48.540;9.268;2023-05-23T07:57:23;97468.47;;;17.87;100.00
5284;BME280;15377;48.540;9.268;2023-05-23T08:00:03;97456.75;;;17.65;100.00
5284;BME280;15377;48.540;9.268;2023-05-23T08:02:31;97471.31;;;17.41;100.00
5284;BME280;15377;48.540;9.268;2023-05-23T08:04:59;97466.84;;;17.27;100.00
5284;BME280;15377;48.540;9.268;2023-05-23T08:07:24;97471.84;;;17.34;100.00
5284;BME280;15377;48.540;9.268;2023-05-23T08:09:50;97472.47;;;17.16;100.00
5284;BME280;15377;48.540;9.268;2023-05-23T08:12:41;97469.78;;;17.00;100.00
5284;BME280;15377;48.540;9.268;2023-05-23T08:15:10;97468.25;;;16.99;100.00
5284;BME280;15377;48.540;9.268;2023-05-23T08:17:35;97474.63;;;16.88;100.00
5284;BME280;15377;48.540;9.268;2023-05-23T08:20:01;97475.63;;;16.85;100.00
5284;BME280;15377;48.540;9.268;2023-05-23T08:22:28;97486.28;;;16.81;100.00
5284;BME280;15377;48.540;9.268;2023-05-23T08:24:54;97481.75;;;16.73;100.00
5284;BME280;15377;48.540;9.268;2023-05-23T08:27:19;97492.59;;;16.76;100.00
5284;BME280;15377;48.540;9.268;2023-05-23T08:29:47;97491.56;;;16.85;100.00
5284;BME280;15377;48.540;9.268;2023-05-23T08:32:13;97488.22;;;16.97;100.00
5284;BME280;15377;48.540;9.268;2023-05-23T08:34:39;97494.94;;;17.18;100.00
5284;BME280;15377;48.540;9.268;2023-05-23T08:37:04;97507.03;;;17.26;100.00
5284;BME280;15377;48.540;9.268;2023-05-23T08:39:30;97502.53;;;17.18;100.00
5284;BME280;15377;48.540;9.268;2023-05-23T08:41:55;97507.88;;;17.16;100.00
5284;BME280;15377;48.540;9.268;2023-05-23T08:44:21;97516.50;;;17.01;100.00
5284;BME280;15377;48.540;9.268;2023-05-23T08:46:46;97516.94;;;17.16;100.00
5284;BME280;15377;48.540;9.268;2023-05-23T08:49:16;97515.69;;;17.17;100.00
5284;BME280;15377;48.540;9.268;2023-05-23T08:51:42;97533.41;;;17.14;100.00
5284;BME280;15377;48.540;9.268;2023-05-23T08:54:09;97516.47;;;17.12;100.00
5284;BME280;15377;48.540;9.268;2023-05-23T08:56:40;97532.41;;;17.06;100.00
5284;BME280;15377;48.540;9.268;2023-05-23T08:59:08;97527.16;;;16.97;100.00
5284;BME280;15377;48.540;9.268;2023-05-23T09:01:34;97536.78;;;16.96;100.00
5284;BME280;15377;48.540;9.268;2023-05-23T09:04:00;97523.69;;;16.69;100.00
5284;BME280;15377;48.540;9.268;2023-05-23T09:06:29;97541.13;;;16.70;100.00
5284;BME280;15377;48.540;9.268;2023-05-23T09:08:55;97537.59;;;16.64;100.00
5284;BME280;15377;48.540;9.268;2023-05-23T09:11:20;97538.59;;;16.72;100.00
5284;BME280;15377;48.540;9.268;2023-05-23T09:13:46;97548.66;;;16.86;100.00
5284;BME280;15377;48.540;9.268;2023-05-23T09:16:17;97554.72;;;16.84;100.00
5284;BME280;15377;48.540;9.268;2023-05-23T09:18:43;97561.81;;;16.80;100.00
5284;BME280;15377;48.540;9.268;2023-05-23T09:21:10;97557.28;;;16.82;100.00
5284;BME280;15377;48.540;9.268;2023-05-23T09:23:37;97557.22;;;16.93;100.00
5284;BME280;15377;48.540;9.268;2023-05-23T09:26:08;97553.97;;;16.78;100.00
5284;BME280;15377;48.540;9.268;2023-05-23T09:28:34;97559.03;;;16.85;100.00
5284;BME280;15377;48.540;9.268;2023-05-23T09:31:01;97561.97;;;17.09;100.00
5284;BME280;15377;48.540;9.268;2023-05-23T09:33:46;97565.25;;;17.13;100.00
5284;BME280;15377;48.540;9.268;2023-05-23T09:36:16;97571.41;;;16.84;100.00
5284;BME280;15377;48.540;9.268;2023-05-23T09:38:43;97568.84;;;16.97;100.00
5284;BME280;15377;48.540;9.268;2023-05-23T09:41:09;97560.00;;;16.93;100.00
5284;BME280;15377;48.540;9.268;2023-05-23T09:43:38;97575.91;;;17.04;100.00
5284;BME280;15377;48.540;9.268;2023-05-23T09:46:11;97550.41;;;16.94;100.00
5284;BME280;15377;48.540;9.268;2023-05-23T09:48:45;97585.25;;;17.06;100.00
5284;BME280;15377;48.540;9.268;2023-05-23T09:51:10;97575.13;;;17.14;100.00
5284;BME280;15377;48.540;9.268;2023-05-23T09:53:39;97582.72;;;17.08;100.00
5284;BME280;15377;48.540;9.268;2023-05-23T09:56:09;97584.28;;;16.98;100.00
5284;BME280;15377;48.540;9.268;2023-05-23T09:58:40;97585.72;;;17.10;100.00
5284;BME280;15377;48.540;9.268;2023-05-23T10:01:29;97579.16;;;17.13;100.00
5284;BME280;15377;48.540;9.268;2023-05-23T10:03:58;97588.84;;;16.85;100.00
5284;BME280;15377;48.540;9.268;2023-05-23T10:06:45;97597.94;;;16.85;100.00
5284;BME280;15377;48.540;9.268;2023-05-23T10:09:30;97598.72;;;16.86;100.00
5284;BME280;15377;48.540;9.268;2023-05-23T10:15:04;97604.03;;;16.67;100.00
5284;BME280;15377;48.540;9.268;2023-05-23T10:20:32;97597.41;;;17.03;100.00
5284;BME280;15377;48.540;9.268;2023-05-23T10:22:59;97592.41;;;16.74;100.00
5284;BME280;15377;48.540;9.268;2023-05-23T10:25:26;97597.94;;;16.96;100.00
5284;BME280;15377;48.540;9.268;2023-05-23T10:27:54;97606.00;;;17.05;100.00
5284;BME280;15377;48.540;9.268;2023-05-23T10:30:24;97587.69;;;17.26;100.00
5284;BME280;15377;48.540;9.268;2023-05-23T10:32:50;97600.34;;;17.33;100.00
5284;BME280;15377;48.540;9.268;2023-05-23T10:41:02;97589.25;;;17.73;100.00
5284;BME280;15377;48.540;9.268;2023-05-23T10:49:43;97599.09;;;18.20;100.00
5284;BME280;15377;48.540;9.268;2023-05-23T10:52:17;97593.41;;;18.37;100.00
5284;BME280;15377;48.540;9.268;2023-05-23T10:54:51;97598.63;;;18.75;100.00
5284;BME280;15377;48.540;9.268;2023-05-23T10:57:21;97590.81;;;18.97;100.00
5284;BME280;15377;48.540;9.268;2023-05-23T10:59:50;97593.78;;;19.05;100.00
5284;BME280;15377;48.540;9.268;2023-05-23T11:02:19;97594.91;;;18.67;100.00
5284;BME280;15377;48.540;9.268;2023-05-23T11:05:21;97599.81;;;18.85;100.00
5284;BME280;15377;48.540;9.268;2023-05-23T11:08:06;97599.56;;;18.83;100.00
5284;BME280;15377;48.540;9.268;2023-05-23T11:10:50;97595.22;;;18.87;100.00
5284;BME280;15377;48.540;9.268;2023-05-23T11:13:16;97598.41;;;18.97;100.00
5284;BME280;15377;48.540;9.268;2023-05-23T11:15:42;97595.63;;;18.97;100.00
5284;BME280;15377;48.540;9.268;2023-05-23T11:18:10;97599.75;;;19.14;100.00
5284;BME280;15377;48.540;9.268;2023-05-23T11:20:44;97601.13;;;19.32;100.00
5284;BME280;15377;48.540;9.268;2023-05-23T11:23:11;97585.63;;;19.31;100.00
5284;BME280;15377;48.540;9.268;2023-05-23T11:25:44;97594.94;;;19.57;100.00
5284;BME280;15377;48.540;9.268;2023-05-23T11:28:12;97592.75;;;19.69;100.00
5284;BME280;15377;48.540;9.268;2023-05-23T11:30:38;97591.56;;;19.83;100.00
5284;BME280;15377;48.540;9.268;2023-05-23T11:33:08;97572.47;;;19.87;100.00
5284;BME280;15377;48.540;9.268;2023-05-23T11:35:36;97575.41;;;20.13;100.00
5284;BME280;15377;48.540;9.268;2023-05-23T11:38:04;97587.19;;;20.06;100.00
5284;BME280;15377;48.540;9.268;2023-05-23T11:40:34;97590.06;;;19.82;100.00
5284;BME280;15377;48.540;9.268;2023-05-23T11:43:08;97593.97;;;19.92;100.00
5284;BME280;15377;48.540;9.268;2023-05-23T11:45:34;97579.94;;;19.79;100.00
5284;BME280;15377;48.540;9.268;2023-05-23T11:50:32;97587.19;;;20.06;100.00
5284;BME280;15377;48.540;9.268;2023-05-23T11:52:58;97584.28;;;20.30;100.00
5284;BME280;15377;48.540;9.268;2023-05-23T11:55:24;97571.66;;;20.55;100.00
5284;BME280;15377;48.540;9.268;2023-05-23T11:57:49;97574.00;;;20.95;100.00
5284;BME280;15377;48.540;9.268;2023-05-23T12:00:16;97571.63;;;21.51;100.00
5284;BME280;15377;48.540;9.268;2023-05-23T12:02:43;97565.03;;;21.62;100.00
5284;BME280;15377;48.540;9.268;2023-05-23T12:05:10;97570.25;;;21.06;100.00
5284;BME280;15377;48.540;9.268;2023-05-23T12:07:44;97572.41;;;20.55;100.00
5284;BME280;15377;48.540;9.268;2023-05-23T12:10:11;97584.47;;;20.63;100.00
5284;BME280;15377;48.540;9.268;2023-05-23T12:12:40;97571.00;;;19.99;100.00
5284;BME280;15377;48.540;9.268;2023-05-23T12:15:08;97570.56;;;19.95;100.00
5284;BME280;15377;48.540;9.268;2023-05-23T12:17:35;97577.06;;;20.03;100.00
5284;BME280;15377;48.540;9.268;2023-05-23T12:20:00;97571.78;;;20.18;100.00
5284;BME280;15377;48.540;9.268;2023-05-23T12:22:27;97553.50;;;19.98;100.00
5284;BME280;15377;48.540;9.268;2023-05-23T12:24:53;97568.84;;;20.42;100.00
5284;BME280;15377;48.540;9.268;2023-05-23T12:27:26;97563.03;;;20.08;100.00
5284;BME280;15377;48.540;9.268;2023-05-23T12:29:54;97567.66;;;20.50;100.00
5284;BME280;15377;48.540;9.268;2023-05-23T12:32:28;97569.72;;;20.50;100.00
5284;BME280;15377;48.540;9.268;2023-05-23T12:34:53;97569.94;;;20.65;100.00
5284;BME280;15377;48.540;9.268;2023-05-23T12:37:18;97563.44;;;19.94;100.00
5284;BME280;15377;48.540;9.268;2023-05-23T12:39:44;97564.59;;;20.04;100.00
5284;BME280;15377;48.540;9.268;2023-05-23T12:42:09;97565.00;;;19.95;100.00
5284;BME280;15377;48.540;9.268;2023-05-23T12:44:35;97569.13;;;20.07;100.00
5284;BME280;15377;48.540;9.268;2023-05-23T12:47:02;97561.59;;;20.33;100.00
5284;BME280;15377;48.540;9.268;2023-05-23T12:49:28;97564.34;;;20.65;100.00
5284;BME280;15377;48.540;9.268;2023-05-23T12:51:53;97565.69;;;20.32;100.00
5284;BME280;15377;48.540;9.268;2023-05-23T12:54:18;97563.69;;;20.14;100.00
5284;BME280;15377;48.540;9.268;2023-05-23T12:56:44;97563.19;;;20.29;100.00
5284;BME280;15377;48.540;9.268;2023-05-23T12:59:09;97569.91;;;19.89;100.00
5284;BME280;15377;48.540;9.268;2023-05-23T13:01:34;97565.38;;;20.36;100.00
5284;BME280;15377;48.540;9.268;2023-05-23T13:04:00;97562.59;;;20.36;100.00
5284;BME280;15377;48.540;9.268;2023-05-23T13:06:27;97558.63;;;20.13;100.00
5284;BME280;15377;48.540;9.268;2023-05-23T13:08:52;97567.41;;;20.35;100.00
5284;BME280;15377;48.540;9.268;2023-05-23T13:11:19;97564.34;;;20.02;100.00
5284;BME280;15377;48.540;9.268;2023-05-23T13:13:47;97572.00;;;20.33;100.00
5284;BME280;15377;48.540;9.268;2023-05-23T13:16:18;97575.78;;;20.22;100.00
5284;BME280;15377;48.540;9.268;2023-05-23T13:18:43;97571.59;;;20.29;100.00
5284;BME280;15377;48.540;9.268;2023-05-23T13:21:09;97576.72;;;20.25;100.00
5284;BME280;15377;48.540;9.268;2023-05-23T13:23:34;97578.03;;;20.05;100.00
5284;BME280;15377;48.540;9.268;2023-05-23T13:26:01;97575.13;;;20.29;100.00
5284;BME280;15377;48.540;9.268;2023-05-23T13:28:27;97572.97;;;20.67;100.00
5284;BME280;15377;48.540;9.268;2023-05-23T13:30:53;97579.22;;;20.73;100.00